• Join FlightAware (Why Join?)
  • Login
  • US Flag 
08:46PM EST


 

Airport Tracker/Info


-or-


 

Live Flight TrackerFlight Track Log ✈ SWA496 ✈ 06-Jun-2014 ✈ KBWI - KMHT

Flight Track Log - Related Links

Times and Time Zones

All times are in EDT time to prevent confusion due to time zone crossing. See the SWA496 flight status page for this flight to view local times or setup timezone preferences in your user account.

Time Position Orientation Groundspeed Altitude Reporting Facility
EDT Latitude Longitude Course Direction KTS MPH feet Rate Location/Type
06:54PM 39.1667 -76.7333 122° Southeast 174 200 2,000  Level Potomac TRACON
06:56PM 39.1297 -76.6564 122° Southeast 184 212 6,500 2,460 Climbing Washington Center
06:57PM 39.1325 -76.5522 88° East 224 258 9,100 2,580 Climbing Washington Center
06:58PM 39.1397 -76.4425 85° East 268 308 11,700 2,700 Climbing Washington Center
06:59PM 39.1467 -76.3142 86° East 317 365 14,600 2,580 Climbing Washington Center
07:00PM 39.1558 -76.1697 85° East 357 411 16,900 2,100 Climbing Washington Center
07:01PM 39.1753 -76.0306 80° East 413 475 18,900 2,100 Climbing Washington Center
07:02PM 39.2319 -75.8944 62° Northeast 425 489 21,200 2,160 Climbing Washington Center
07:03PM 39.3197 -75.7686 48° Northeast 438 504 23,300 1,860 Climbing Washington Center
07:04PM 39.4114 -75.6372 48° Northeast 460 529 25,000 1,800 Climbing Washington Center
07:05PM 39.5011 -75.5028 49° Northeast 479 551 27,000 1,980 Climbing Washington Center
07:06PM 39.5903 -75.3733 48° Northeast 484 557 29,000 1,920 Climbing Washington Center
07:09PM 39.8236 -75.0389 48° Northeast 496 571 33,800 1,740 Climbing New York Center
07:10PM 39.9181 -74.9064 47° Northeast 496 571 35,200 1,260 Climbing New York Center
07:11PM 40.0233 -74.7583 47° Northeast 496 571 36,300 1,320 Climbing New York Center
07:12PM 40.1486 -74.6867 24° Northeast 485 558 37,900 1,320 Climbing New York Center
07:13PM 40.2644 -74.6469 15° North 467 537 39,000 540 Climbing New York Center
07:14PM 40.3911 -74.6022 15° North 467 537 39,000  Level New York Center
07:15PM 40.5944 -74.5378 14° North 477 549 39,000  Level Boston Center
07:16PM 40.7222 -74.4956 14° North 476 548 39,000  Level Boston Center
07:17PM 40.8542 -74.4525 14° North 483 556 39,000  Level Boston Center
07:18PM 41.0114 -74.4014 14° North 485 558 39,000  Level Boston Center
07:19PM 41.1303 -74.3600 15° North 486 559 39,000  Level Boston Center
07:20PM 41.2619 -74.3164 14° North 486 559 39,000  Level Boston Center
07:21PM 41.3931 -74.2717 14° North 486 559 39,000 -240 Level Boston Center
07:22PM 41.5503 -74.2186 14° North 486 559 38,600 -900 Descending Boston Center
07:23PM 41.6758 -74.1736 15° North 472 543 37,200 -1,680 Descending Boston Center
07:24PM 41.8003 -74.1319 14° North 465 535 35,200 -1,800 Descending Boston Center
07:25PM 41.9106 -74.0939 14° North 459 528 33,500 -1,860 Descending Boston Center
07:26PM 42.0286 -74.0425 18° North 454 522 31,400 -2,460 Descending Boston Center
07:27PM 42.1142 -73.8747 55° Northeast 461 531 28,500 -2,640 Descending Boston Center
07:28PM 42.1792 -73.7283 59° Northeast 459 528 26,100 -2,100 Descending Boston Center
07:29PM 42.2344 -73.6019 59° Northeast 442 509 24,200 -1,500 Descending Boston Center
07:30PM 42.2922 -73.4692 60° Northeast 419 482 23,100 -1,080 Descending Boston Center
07:32PM 42.3564 -73.3222 59° Northeast 416 479 22,000 -1,080 Descending Boston Center
07:33PM 42.4136 -73.1897 60° Northeast 412 474 21,000 -1,020 Descending Boston Center
07:34PM 42.4703 -73.0586 60° Northeast 407 468 20,000 -1,020 Descending Boston Center
07:35PM 42.5336 -72.9081 60° Northeast 398 458 19,000 -540 Descending Boston Center
07:36PM 42.5872 -72.7822 60° Northeast 390 449 19,000  Level Boston Center
07:37PM 42.6361 -72.6681 60° Northeast 390 449 19,000 -780 Level Boston Center
07:38PM 42.6889 -72.5431 60° Northeast 386 444 17,500 -1,920 Descending Boston Center
07:39PM 42.7497 -72.3986 60° Northeast 372 428 15,100 -2,160 Descending Boston Center
07:40PM 42.7956 -72.2822 62° Northeast 356 410 13,100 -1,920 Descending Boston Center
07:41PM 42.8056 -72.1467 84° East 352 405 11,200 -1,620 Descending Boston Center
07:42PM 42.8167 -72.0153 83° East 324 373 9,900 -1,380 Descending Boston Center
07:43PM 42.8264 -71.9058 83° East 296 341 8,400 -1,680 Descending Boston Center
07:44PM 42.8272 -71.7992 89° East 286 329 6,500 -1,440 Descending Boston Center
07:45PM 42.8161 -71.6856 98° East 285 328 5,500 -1,140 Descending Boston Center
07:46PM 42.8069 -71.5811 97° East 284 327 4,200 -1,020 Descending Boston Center
07:47PM 42.7983 -71.4842 97° East 261 300 3,500 -780 Descending Boston Center
07:48PM 42.8194 -71.4008 71° East 222 255 2,700 -1,020 Descending Boston Center
07:49PM 42.8625 -71.3914 North 168 193 1,500 -960 Descending Boston Center
07:50PM 42.8961 -71.4117 336° Northwest 134 154 800 -600 Descending Boston Center
07:51PM 42.9283 -71.4300 337° Northwest 133 153 300 -540 Descending Boston Center
07:53PM 42.9167 -71.4333 316° Northwest  Level FlightAware Approximate